createdAt,value
2018-04-12T00:01:17.075Z,4.77
2018-04-12T00:03:44.492Z,6.17
2018-04-12T00:06:12.829Z,5.47
2018-04-12T00:08:41.538Z,4.77
2018-04-12T00:11:10.384Z,5.10
2018-04-12T00:13:37.731Z,4.87
2018-04-12T00:16:05.858Z,4.80
2018-04-12T00:18:34.115Z,5.77
2018-04-12T00:21:01.525Z,5.67
2018-04-12T00:23:29.817Z,5.43
2018-04-12T00:25:57.170Z,5.37
2018-04-12T00:28:24.535Z,4.17
2018-04-12T00:30:52.635Z,5.53
2018-04-12T00:33:20.926Z,4.73
2018-04-12T00:35:48.254Z,5.87
2018-04-12T00:38:16.372Z,5.17
2018-04-12T00:40:44.427Z,5.33
2018-04-12T00:43:12.893Z,5.77
2018-04-12T00:45:40.238Z,5.33
2018-04-12T00:48:07.602Z,4.73
2018-04-12T00:50:35.684Z,5.23
2018-04-12T00:53:03.774Z,5.03
2018-04-12T00:55:31.098Z,5.03
2018-04-12T00:57:58.446Z,5.17
2018-04-12T01:00:25.812Z,4.90
2018-04-12T01:02:54.074Z,5.43
2018-04-12T01:05:21.442Z,5.70
2018-04-12T01:07:48.877Z,6.20
2018-04-12T01:10:17.088Z,5.40
2018-04-12T01:12:44.527Z,4.57
2018-04-12T01:15:12.776Z,5.13
2018-04-12T01:17:41.066Z,5.93
2018-04-12T01:20:08.439Z,5.20
2018-04-12T01:22:35.780Z,6.33
2018-04-12T01:25:03.938Z,5.93
2018-04-12T01:27:32.042Z,5.70
2018-04-12T01:30:00.297Z,4.43
2018-04-12T01:32:27.649Z,4.47
2018-04-12T01:34:55.010Z,7.93
2018-04-12T01:37:23.438Z,5.80
2018-04-12T01:39:51.523Z,4.70
2018-04-12T01:42:19.621Z,7.40
2018-04-12T01:44:47.790Z,5.97
2018-04-12T01:47:15.330Z,5.13
2018-04-12T01:49:43.419Z,5.80
2018-04-12T01:52:11.550Z,7.37
2018-04-12T01:54:39.837Z,6.03
2018-04-12T01:57:07.951Z,4.33
2018-04-12T01:59:35.303Z,4.73
2018-04-12T02:02:03.372Z,6.10
2018-04-12T02:04:30.779Z,6.00
2018-04-12T02:06:58.880Z,6.27
2018-04-12T02:09:26.258Z,6.40
2018-04-12T02:11:54.346Z,6.37
2018-04-12T02:14:21.677Z,5.60
2018-04-12T02:16:49.762Z,5.60
2018-04-12T02:19:17.110Z,7.57
2018-04-12T02:21:44.551Z,6.50
2018-04-12T02:24:12.841Z,5.20
2018-04-12T02:26:40.171Z,6.07
2018-04-12T02:29:08.247Z,5.70
2018-04-12T02:31:35.586Z,5.97
2018-04-12T02:34:03.651Z,6.53
2018-04-12T02:36:31.903Z,5.93
2018-04-12T02:38:59.987Z,6.37
2018-04-12T02:41:28.075Z,5.03
2018-04-12T02:43:55.410Z,6.00
2018-04-12T02:46:23.955Z,6.70
2018-04-12T02:48:51.275Z,7.57
2018-04-12T02:51:18.708Z,7.23
2018-04-12T02:53:47.007Z,7.30
2018-04-12T02:56:15.284Z,5.10
2018-04-12T02:58:43.571Z,6.33
2018-04-12T03:01:11.822Z,5.93
2018-04-12T03:03:41.390Z,6.93
2018-04-12T03:06:09.646Z,8.20
2018-04-12T03:08:38.034Z,7.40
2018-04-12T03:11:05.399Z,4.77
2018-04-12T03:13:32.762Z,7.37
2018-04-12T03:16:00.834Z,6.80
2018-04-12T03:18:29.105Z,7.70
2018-04-12T03:20:56.469Z,6.20
2018-04-12T03:23:24.546Z,7.63
2018-04-12T03:25:52.992Z,8.53
2018-04-12T03:28:20.374Z,8.47
2018-04-12T03:30:47.759Z,6.87
2018-04-12T03:33:16.002Z,6.80
2018-04-12T03:35:44.279Z,7.63
2018-04-12T03:38:11.600Z,7.23
2018-04-12T03:40:38.966Z,8.23
2018-04-12T03:43:06.401Z,7.93
2018-04-12T03:45:33.843Z,7.03
2018-04-12T03:48:01.205Z,8.73
2018-04-12T03:50:28.665Z,7.67
2018-04-12T03:52:56.889Z,5.50
2018-04-12T03:55:24.991Z,7.03
2018-04-12T03:57:52.382Z,8.10
2018-04-12T04:00:19.721Z,8.47
2018-04-12T04:02:47.835Z,8.13
2018-04-12T04:05:16.123Z,8.10
2018-04-12T04:07:45.425Z,9.13
2018-04-12T04:10:13.554Z,10.23
2018-04-12T04:12:41.682Z,8.50
2018-04-12T04:15:16.160Z,9.23
2018-04-12T04:17:55.862Z,8.13
2018-04-12T04:20:36.098Z,8.37
2018-04-12T04:23:03.432Z,7.03
2018-04-12T04:25:31.694Z,9.17
2018-04-12T04:27:59.847Z,7.97
2018-04-12T04:30:27.186Z,8.97
2018-04-12T04:32:54.566Z,8.83
2018-04-12T04:35:21.931Z,7.80
2018-04-12T04:37:49.272Z,7.00
2018-04-12T04:40:16.642Z,9.60
2018-04-12T04:42:44.778Z,9.47
2018-04-12T04:45:12.239Z,7.93
2018-04-12T04:47:40.319Z,8.40
2018-04-12T04:50:07.676Z,8.67
2018-04-12T04:52:35.035Z,8.07
2018-04-12T04:55:02.492Z,7.10
2018-04-12T04:57:29.870Z,9.03
2018-04-12T04:59:58.158Z,9.47
2018-04-12T05:02:25.582Z,9.97
2018-04-12T05:04:53.747Z,8.90
2018-04-12T05:07:21.291Z,9.43
2018-04-12T05:09:49.567Z,7.43
2018-04-12T05:12:18.202Z,10.50
2018-04-12T05:14:46.494Z,8.80
2018-04-12T05:17:14.663Z,10.67
2018-04-12T05:19:42.735Z,6.67
2018-04-12T05:22:10.070Z,7.60
2018-04-12T05:24:38.220Z,7.53
2018-04-12T05:27:06.549Z,9.07
2018-04-12T05:29:34.950Z,9.47
2018-04-12T05:32:02.391Z,10.23
2018-04-12T05:34:30.714Z,6.97
2018-04-12T05:36:58.061Z,8.70
2018-04-12T05:39:26.638Z,10.90
2018-04-12T05:41:53.984Z,9.60
2018-04-12T05:44:21.330Z,8.87
2018-04-12T05:46:49.629Z,10.70
2018-04-12T05:49:17.926Z,9.73
2018-04-12T05:51:46.062Z,14.40
2018-04-12T05:54:14.322Z,10.67
2018-04-12T05:56:41.673Z,9.07
2018-04-12T05:59:09.065Z,11.60
2018-04-12T06:01:37.322Z,10.80
2018-04-12T06:04:04.690Z,8.47
2018-04-12T06:06:32.067Z,13.03
2018-04-12T06:09:05.444Z,9.97
2018-04-12T06:11:33.394Z,7.77
2018-04-12T06:14:00.763Z,5.70
2018-04-12T06:16:28.745Z,9.17
2018-04-12T06:18:57.047Z,10.30
2018-04-12T06:21:25.645Z,8.87
2018-04-12T06:23:53.955Z,10.20
2018-04-12T06:26:21.309Z,10.60
2018-04-12T06:28:48.638Z,11.80
2018-04-12T06:31:16.922Z,9.67
2018-04-12T06:33:44.402Z,6.87
2018-04-12T06:36:12.701Z,11.60
2018-04-12T06:38:40.031Z,11.27
2018-04-12T06:41:08.330Z,11.33
2018-04-12T06:43:36.621Z,9.70
2018-04-12T06:46:05.046Z,10.17
2018-04-12T06:48:33.113Z,11.83
2018-04-12T06:51:00.618Z,10.90
2018-04-12T06:53:28.862Z,9.20
2018-04-12T06:55:56.215Z,11.03
2018-04-12T06:58:23.611Z,11.03
2018-04-12T07:00:51.716Z,10.17
2018-04-12T07:03:19.091Z,8.03
2018-04-12T07:05:47.493Z,8.33
2018-04-12T07:08:15.393Z,9.23
2018-04-12T07:10:43.638Z,15.00
2018-04-12T07:13:12.196Z,15.37
2018-04-12T07:15:39.773Z,10.30
2018-04-12T07:18:08.072Z,12.33
2018-04-12T07:20:36.406Z,13.23
2018-04-12T07:23:03.802Z,12.20
2018-04-12T07:25:32.152Z,11.13
2018-04-12T07:27:59.475Z,14.90
2018-04-12T07:30:26.862Z,12.37
2018-04-12T07:32:54.219Z,12.67
2018-04-12T07:35:21.610Z,14.63
2018-04-12T07:37:50.097Z,18.50
2018-04-12T07:40:17.429Z,15.10
2018-04-12T07:42:44.783Z,13.88
2018-04-12T07:45:13.056Z,16.77
2018-04-12T07:47:41.385Z,14.00
2018-04-12T07:50:08.838Z,12.90
2018-04-12T07:52:36.157Z,14.77
2018-04-12T07:55:04.269Z,14.20
2018-04-12T07:57:32.546Z,13.70
2018-04-12T07:59:59.930Z,16.27
2018-04-12T08:02:28.194Z,11.13
2018-04-12T08:04:56.517Z,7.23
2018-04-12T08:07:23.857Z,9.07
2018-04-12T08:09:52.918Z,7.77
2018-04-12T08:12:21.185Z,6.17
2018-04-12T08:14:48.559Z,7.43
2018-04-12T08:17:16.210Z,8.40
2018-04-12T08:19:43.593Z,7.17
2018-04-12T08:22:12.004Z,10.93
2018-04-12T08:24:40.062Z,8.60
2018-04-12T08:27:08.746Z,8.30
2018-04-12T08:29:36.925Z,11.00
2018-04-12T08:32:04.314Z,10.47
2018-04-12T08:34:32.395Z,9.90
2018-04-12T08:37:01.133Z,10.07
2018-04-12T08:39:29.222Z,9.80
2018-04-12T08:41:56.611Z,8.83
2018-04-12T08:44:23.979Z,8.80
2018-04-12T08:46:51.355Z,10.47
2018-04-12T08:49:19.456Z,5.87
2018-04-12T08:51:46.829Z,8.20
2018-04-12T08:54:14.214Z,7.70
2018-04-12T08:56:41.617Z,5.20
2018-04-12T08:59:09.787Z,5.53
2018-04-12T09:01:37.386Z,5.50
2018-04-12T09:04:06.973Z,8.00
2018-04-12T09:06:40.420Z,4.00
2018-04-12T09:09:09.370Z,5.80
2018-04-12T09:11:39.199Z,5.30
2018-04-12T09:14:07.402Z,3.43
2018-04-12T09:16:35.528Z,5.80
2018-04-12T09:19:03.788Z,8.17
2018-04-12T09:21:31.593Z,3.73
2018-04-12T09:24:00.996Z,4.17
2018-04-12T09:26:30.208Z,3.00
2018-04-12T09:28:58.415Z,4.60
2018-04-12T09:31:26.586Z,2.53
2018-04-12T09:33:57.532Z,8.30
2018-04-12T09:36:28.732Z,3.67
2018-04-12T09:39:00.430Z,4.03
2018-04-12T09:41:33.374Z,3.07
2018-04-12T09:44:03.730Z,2.60
2018-04-12T09:46:31.246Z,4.33
2018-04-12T09:48:59.659Z,4.93
2018-04-12T09:51:29.760Z,1.60
2018-04-12T09:53:59.863Z,3.63
2018-04-12T09:56:28.330Z,3.53
2018-04-12T09:59:00.240Z,2.23
2018-04-12T10:01:31.144Z,4.57
2018-04-12T10:04:01.410Z,4.50
2018-04-12T10:06:36.820Z,2.97
2018-04-12T10:09:14.742Z,2.70
2018-04-12T10:14:19.950Z,1.87
2018-04-12T10:16:47.370Z,4.27
2018-04-12T10:19:18.373Z,2.80
2018-04-12T10:21:47.570Z,4.23
2018-04-12T10:24:15.016Z,3.17
2018-04-12T10:26:44.107Z,11.23
2018-04-12T10:29:17.130Z,2.83
2018-04-12T10:31:46.255Z,2.43
2018-04-12T10:34:16.110Z,2.17
2018-04-12T10:36:47.170Z,1.70
2018-04-12T10:39:19.403Z,1.80
2018-04-12T10:41:49.458Z,1.40
2018-04-12T10:44:17.956Z,1.57
2018-04-12T10:46:46.292Z,1.50
2018-04-12T10:49:20.404Z,1.60
2018-04-12T10:51:51.717Z,3.40
2018-04-12T10:54:19.394Z,1.70
2018-04-12T10:56:46.894Z,1.20
2018-04-12T10:59:16.236Z,2.20
2018-04-12T11:01:43.624Z,2.60
2018-04-12T11:04:11.010Z,2.60
2018-04-12T11:06:39.352Z,1.20
2018-04-12T11:09:06.830Z,1.83
2018-04-12T11:11:36.768Z,3.50
2018-04-12T11:14:04.240Z,2.57
2018-04-12T11:16:31.631Z,1.50
2018-04-12T11:19:06.739Z,4.37
2018-04-12T11:21:34.098Z,1.87
2018-04-12T11:24:03.110Z,3.40
2018-04-12T11:26:32.938Z,1.20
2018-04-12T11:29:02.217Z,2.43
2018-04-12T11:31:32.552Z,1.70
2018-04-12T11:34:00.941Z,1.80
2018-04-12T11:36:31.116Z,1.53
2018-04-12T11:39:04.214Z,1.00
2018-04-12T11:41:35.356Z,1.00
2018-04-12T11:44:04.689Z,1.03
2018-04-12T11:46:33.294Z,1.53
2018-04-12T11:49:02.126Z,1.60
2018-04-12T11:51:30.446Z,1.47
2018-04-12T11:54:01.675Z,1.50
2018-04-12T11:56:31.666Z,1.10
2018-04-12T11:59:01.856Z,1.73
2018-04-12T12:01:29.259Z,1.67
2018-04-12T12:04:03.376Z,1.10
2018-04-12T12:06:31.563Z,1.43
2018-04-12T12:09:00.774Z,1.17
2018-04-12T12:11:33.581Z,2.00
2018-04-12T12:14:04.570Z,5.83
2018-04-12T12:16:37.426Z,0.83
2018-04-12T12:19:06.698Z,2.00
2018-04-12T12:21:37.299Z,2.10
2018-04-12T12:24:05.650Z,2.03
2018-04-12T12:26:34.696Z,2.03
2018-04-12T12:29:08.444Z,1.87
2018-04-12T12:31:39.115Z,3.90
2018-04-12T12:34:06.694Z,0.90
2018-04-12T12:36:36.799Z,2.23
2018-04-12T12:39:06.805Z,1.00
2018-04-12T12:41:37.127Z,2.53
2018-04-12T12:44:04.476Z,2.03
2018-04-12T12:46:33.868Z,1.10
2018-04-12T12:49:02.176Z,1.53
2018-04-12T12:51:34.035Z,2.30
2018-04-12T12:54:04.946Z,0.93
2018-04-12T12:56:39.623Z,3.23
2018-04-12T12:59:11.257Z,1.70
2018-04-12T13:01:41.105Z,1.00
2018-04-12T13:04:09.353Z,1.50
2018-04-12T13:06:39.314Z,0.70
2018-04-12T13:09:07.687Z,0.77
2018-04-12T13:11:43.362Z,0.80
2018-04-12T13:14:12.552Z,1.40
2018-04-12T13:16:45.992Z,2.73
2018-04-12T13:19:22.387Z,1.47
2018-04-12T13:21:55.268Z,1.40
2018-04-12T13:24:27.186Z,1.20
2018-04-12T13:27:00.379Z,1.00
2018-04-12T13:29:30.447Z,2.47
2018-04-12T13:31:59.618Z,2.33
2018-04-12T13:34:31.778Z,0.97
2018-04-12T13:37:01.783Z,1.97
2018-04-12T13:39:32.869Z,1.17
2018-04-12T13:42:07.319Z,1.03
2018-04-12T13:44:36.482Z,1.50
2018-04-12T13:47:03.840Z,1.60
2018-04-12T13:49:33.275Z,1.50
2018-04-12T13:52:03.166Z,1.63
2018-04-12T13:54:35.995Z,5.20
2018-04-12T13:57:05.923Z,3.83
2018-04-12T13:59:33.417Z,2.03
2018-04-12T14:02:02.764Z,2.60
2018-04-12T14:04:33.566Z,1.90
2018-04-12T14:07:03.720Z,3.73
2018-04-12T14:09:32.749Z,1.10
2018-04-12T14:12:02.021Z,1.37
2018-04-12T14:14:32.112Z,1.70
2018-04-12T14:17:05.524Z,6.50
2018-04-12T14:19:35.369Z,2.50
2018-04-12T14:22:03.546Z,2.20
2018-04-12T14:24:36.718Z,2.80
2018-04-12T14:27:04.111Z,6.50
2018-04-12T14:29:36.347Z,0.90
2018-04-12T14:32:06.674Z,1.80
2018-04-12T14:34:35.593Z,1.07
2018-04-12T14:37:06.867Z,2.90
2018-04-12T14:39:39.812Z,2.40
2018-04-12T14:42:10.115Z,1.37
2018-04-12T14:44:40.341Z,1.67
2018-04-12T14:47:12.954Z,2.50
2018-04-12T14:49:41.286Z,4.30
2018-04-12T14:52:10.598Z,1.20
2018-04-12T14:54:43.270Z,1.40
2018-04-12T14:57:14.448Z,0.70
2018-04-12T14:59:41.978Z,0.77
2018-04-12T15:02:11.358Z,1.53
2018-04-12T15:04:41.686Z,1.90
2018-04-12T15:07:12.618Z,1.40
2018-04-12T15:09:43.901Z,0.70
2018-04-12T15:12:14.886Z,2.97
2018-04-12T15:14:44.108Z,3.03
2018-04-12T15:17:18.792Z,1.03
2018-04-12T15:19:48.843Z,1.97
2018-04-12T15:22:17.869Z,1.90
2018-04-12T15:24:47.041Z,0.97
2018-04-12T15:27:17.098Z,3.00
2018-04-12T15:29:50.880Z,4.87
2018-04-12T15:32:21.822Z,1.27
2018-04-12T15:34:53.637Z,5.80
2018-04-12T15:37:21.049Z,1.70
2018-04-12T15:39:50.865Z,2.13
2018-04-12T15:42:30.344Z,1.87
2018-04-12T15:45:02.487Z,1.20
2018-04-12T15:47:31.687Z,2.87
2018-04-12T15:50:05.408Z,1.50
2018-04-12T15:52:37.726Z,2.63
2018-04-12T15:55:06.794Z,1.33
2018-04-12T15:57:34.189Z,0.70
2018-04-12T16:00:04.504Z,3.70
2018-04-12T16:02:35.481Z,2.13
2018-04-12T16:05:05.514Z,1.03
2018-04-12T16:07:32.870Z,3.37
2018-04-12T16:10:00.949Z,1.43
2018-04-12T16:12:28.211Z,1.30
2018-04-12T16:14:56.398Z,1.63
2018-04-12T16:17:23.843Z,1.77
2018-04-12T16:19:51.090Z,3.00
2018-04-12T16:22:19.403Z,1.07
2018-04-12T16:24:46.774Z,1.03
2018-04-12T16:27:15.094Z,2.80
2018-04-12T16:29:43.315Z,1.57
2018-04-12T16:32:10.598Z,1.17
2018-04-12T16:34:37.913Z,1.10
2018-04-12T16:37:05.358Z,2.43
2018-04-12T16:39:33.384Z,1.20
2018-04-12T16:42:00.750Z,2.10
2018-04-12T16:44:28.805Z,2.77
2018-04-12T16:46:57.024Z,1.93
2018-04-12T16:49:24.264Z,1.33
2018-04-12T16:51:51.551Z,1.23
2018-04-12T16:54:18.824Z,2.20
2018-04-12T16:56:46.219Z,1.53
2018-04-12T16:59:14.587Z,1.00
2018-04-12T17:01:42.652Z,1.57
2018-04-12T17:04:09.902Z,3.57
2018-04-12T17:06:37.287Z,3.10
2018-04-12T17:09:05.422Z,2.40
2018-04-12T17:11:33.615Z,1.10
2018-04-12T17:14:02.103Z,3.10
2018-04-12T17:16:30.275Z,1.23
2018-04-12T17:18:58.298Z,1.00
2018-04-12T17:21:26.534Z,1.42
2018-04-12T17:23:54.221Z,2.37
2018-04-12T17:26:22.467Z,1.33
2018-04-12T17:28:50.802Z,1.23
2018-04-12T17:31:19.039Z,2.03
2018-04-12T17:33:47.332Z,2.63
2018-04-12T17:36:15.539Z,2.83
2018-04-12T17:38:43.791Z,2.20
2018-04-12T17:41:13.206Z,5.40
2018-04-12T17:43:41.405Z,3.03
2018-04-12T17:46:09.559Z,1.00
2018-04-12T17:48:37.587Z,3.93
2018-04-12T17:51:05.668Z,4.07
2018-04-12T17:53:33.730Z,2.13
2018-04-12T17:56:01.215Z,1.00
2018-04-12T17:58:29.420Z,1.13
2018-04-12T18:00:57.352Z,2.60
2018-04-12T18:03:25.183Z,0.87
2018-04-12T18:05:53.704Z,0.80
2018-04-12T18:08:23.010Z,0.63
2018-04-12T18:10:55.435Z,1.17
2018-04-12T18:13:33.122Z,0.87
2018-04-12T18:16:00.687Z,2.00
2018-04-12T18:18:28.930Z,2.83
2018-04-12T18:20:56.443Z,4.90
2018-04-12T18:23:23.751Z,7.30
2018-04-12T18:25:53.786Z,2.90
2018-04-12T18:28:21.038Z,1.60
2018-04-12T18:30:48.974Z,3.47
2018-04-12T18:33:17.228Z,3.87
2018-04-12T18:35:44.542Z,4.23
2018-04-12T18:38:13.220Z,5.07
2018-04-12T18:40:42.724Z,6.30
2018-04-12T18:43:11.067Z,6.83
2018-04-12T18:45:39.197Z,5.27
2018-04-12T18:48:07.898Z,6.67
2018-04-12T18:50:35.314Z,6.50
2018-04-12T18:53:02.826Z,8.90
2018-04-12T18:55:30.878Z,8.20
2018-04-12T18:57:58.319Z,9.47
2018-04-12T19:00:25.623Z,6.80
2018-04-12T19:02:53.683Z,7.20
2018-04-12T19:05:21.738Z,7.53
2018-04-12T19:07:49.127Z,7.97
2018-04-12T19:10:16.425Z,6.67
2018-04-12T19:12:46.827Z,10.43
2018-04-12T19:15:14.139Z,8.30
2018-04-12T19:17:42.403Z,10.30
2018-04-12T19:20:09.846Z,9.67
2018-04-12T19:22:37.152Z,11.77
2018-04-12T19:25:05.283Z,7.27
2018-04-12T19:27:32.596Z,9.90
2018-04-12T19:30:00.005Z,7.90
2018-04-12T19:32:27.387Z,11.57
2018-04-12T19:34:54.708Z,9.50
2018-04-12T19:37:22.335Z,10.60
2018-04-12T19:39:49.616Z,9.80
2018-04-12T19:42:17.153Z,8.47
2018-04-12T19:44:44.453Z,8.93
2018-04-12T19:47:11.988Z,9.60
2018-04-12T19:49:39.254Z,9.23
2018-04-12T19:52:07.595Z,10.87
2018-04-12T19:54:35.093Z,9.70
2018-04-12T19:57:02.722Z,11.50
2018-04-12T19:59:30.024Z,11.33
2018-04-12T20:01:57.507Z,11.90
2018-04-12T20:04:24.847Z,10.03
2018-04-12T20:06:52.346Z,9.10
2018-04-12T20:09:19.668Z,9.47
2018-04-12T20:11:47.911Z,12.37
2018-04-12T20:14:15.927Z,12.90
2018-04-12T20:16:43.244Z,12.53
2018-04-12T20:19:11.420Z,9.53
2018-04-12T20:21:38.815Z,11.87
2018-04-12T20:24:06.135Z,11.13
2018-04-12T20:26:33.411Z,10.10
2018-04-12T20:29:00.853Z,9.63
2018-04-12T20:31:28.255Z,9.07
2018-04-12T20:33:55.516Z,10.37
2018-04-12T20:36:22.979Z,9.80
2018-04-12T20:38:51.226Z,10.37
2018-04-12T20:41:19.554Z,11.67
2018-04-12T20:43:46.974Z,8.63
2018-04-12T20:48:39.584Z,12.90
2018-04-12T20:51:06.858Z,10.80
2018-04-12T20:53:34.118Z,7.93
2018-04-12T20:56:01.426Z,9.93
2018-04-12T20:58:28.712Z,9.43
2018-04-12T21:00:56.876Z,8.53
2018-04-12T21:03:24.203Z,6.73
2018-04-12T21:05:51.641Z,10.00
2018-04-12T21:08:19.758Z,7.60
2018-04-12T21:10:47.773Z,9.57
2018-04-12T21:13:15.154Z,8.33
2018-04-12T21:15:42.436Z,8.43
2018-04-12T21:18:09.851Z,7.13
2018-04-12T21:20:38.095Z,6.13
2018-04-12T21:23:05.655Z,7.00
2018-04-12T21:25:32.937Z,11.37
2018-04-12T21:28:04.734Z,8.83
2018-04-12T21:30:31.999Z,8.10
2018-04-12T21:32:59.376Z,12.50
2018-04-12T21:35:26.743Z,9.53
2018-04-12T21:37:54.017Z,8.47
2018-04-12T21:40:21.282Z,9.17
2018-04-12T21:42:48.623Z,5.90
2018-04-12T21:45:16.794Z,6.87
2018-04-12T21:47:44.813Z,7.63
2018-04-12T21:50:12.128Z,7.63
2018-04-12T21:52:39.393Z,11.63
2018-04-12T21:55:06.662Z,6.47
2018-04-12T21:57:33.956Z,8.30
2018-04-12T22:00:01.277Z,8.63
2018-04-12T22:02:28.694Z,6.37
2018-04-12T22:04:55.971Z,6.67
2018-04-12T22:07:23.242Z,6.77
2018-04-12T22:09:50.540Z,7.53
2018-04-12T22:12:17.853Z,6.93
2018-04-12T22:14:46.207Z,5.53
2018-04-12T22:17:13.494Z,8.13
2018-04-12T22:19:40.943Z,7.00
2018-04-12T22:22:08.190Z,8.30
2018-04-12T22:24:35.557Z,6.00
2018-04-12T22:27:02.975Z,5.60
2018-04-12T22:29:32.097Z,7.30
2018-04-12T22:31:59.480Z,7.43
2018-04-12T22:34:27.470Z,6.93
2018-04-12T22:36:54.938Z,8.90
2018-04-12T22:39:22.236Z,4.53
2018-04-12T22:41:49.498Z,8.43
2018-04-12T22:44:16.791Z,7.83
2018-04-12T22:46:44.074Z,5.40
2018-04-12T22:49:11.396Z,9.07
2018-04-12T22:51:39.373Z,5.83
2018-04-12T22:54:06.762Z,6.97
2018-04-12T22:56:34.285Z,8.23
2018-04-12T22:59:02.372Z,6.87
2018-04-12T23:01:29.769Z,5.93
2018-04-12T23:03:57.186Z,6.37
2018-04-12T23:06:24.890Z,4.97
2018-04-12T23:08:53.238Z,6.80
2018-04-12T23:11:20.623Z,7.90
2018-04-12T23:13:47.986Z,9.10
2018-04-12T23:16:15.644Z,7.37
2018-04-12T23:18:42.998Z,6.53
2018-04-12T23:21:10.626Z,8.57
2018-04-12T23:23:37.968Z,5.50
2018-04-12T23:26:05.335Z,7.33
2018-04-12T23:28:32.668Z,5.33
2018-04-12T23:31:00.036Z,5.23
2018-04-12T23:33:27.450Z,6.90
2018-04-12T23:35:54.829Z,6.93
2018-04-12T23:38:22.192Z,6.80
2018-04-12T23:40:51.188Z,6.27
2018-04-12T23:43:18.587Z,10.03
2018-04-12T23:45:45.938Z,7.03
2018-04-12T23:48:13.392Z,5.03
2018-04-12T23:50:41.425Z,9.37
2018-04-12T23:53:08.890Z,7.47
2018-04-12T23:55:37.592Z,7.27
2018-04-12T23:58:04.964Z,7.93
